sensor_id;sensor_type;location;lat;lon;timestamp;temperature;humidity
53876;DHT22;39789;53.216;5.624;2022-11-20T00:00:52;0.60;99.90
53876;DHT22;39789;53.216;5.624;2022-11-20T00:03:18;0.70;99.90
53876;DHT22;39789;53.216;5.624;2022-11-20T00:05:44;0.70;99.90
53876;DHT22;39789;53.216;5.624;2022-11-20T00:08:10;0.70;99.90
53876;DHT22;39789;53.216;5.624;2022-11-20T00:10:37;0.70;99.90
53876;DHT22;39789;53.216;5.624;2022-11-20T00:13:03;0.70;99.90
53876;DHT22;39789;53.216;5.624;2022-11-20T00:15:29;0.70;99.90
53876;DHT22;39789;53.216;5.624;2022-11-20T00:17:54;0.70;99.90
53876;DHT22;39789;53.216;5.624;2022-11-20T00:20:20;0.70;99.90
53876;DHT22;39789;53.216;5.624;2022-11-20T00:22:45;0.60;99.90
53876;DHT22;39789;53.216;5.624;2022-11-20T00:25:11;0.60;99.90
53876;DHT22;39789;53.216;5.624;2022-11-20T00:27:37;0.50;99.90
53876;DHT22;39789;53.216;5.624;2022-11-20T00:30:04;0.40;99.90
53876;DHT22;39789;53.216;5.624;2022-11-20T00:32:30;0.40;99.90
53876;DHT22;39789;53.216;5.624;2022-11-20T00:34:55;0.30;99.90
53876;DHT22;39789;53.216;5.624;2022-11-20T00:37:21;0.30;99.90
53876;DHT22;39789;53.216;5.624;2022-11-20T00:39:46;0.20;99.90
53876;DHT22;39789;53.216;5.624;2022-11-20T00:42:12;0.20;99.90
53876;DHT22;39789;53.216;5.624;2022-11-20T00:44:38;0.20;99.90
53876;DHT22;39789;53.216;5.624;2022-11-20T00:47:03;0.20;99.90
53876;DHT22;39789;53.216;5.624;2022-11-20T00:49:29;0.20;99.90
53876;DHT22;39789;53.216;5.624;2022-11-20T00:51:54;0.20;99.90
53876;DHT22;39789;53.216;5.624;2022-11-20T00:54:20;0.20;99.90
53876;DHT22;39789;53.216;5.624;2022-11-20T00:56:45;0.20;99.90
53876;DHT22;39789;53.216;5.624;2022-11-20T00:59:11;0.20;99.90
53876;DHT22;39789;53.216;5.624;2022-11-20T01:01:37;0.20;99.90
53876;DHT22;39789;53.216;5.624;2022-11-20T01:04:03;0.20;99.90
53876;DHT22;39789;53.216;5.624;2022-11-20T01:06:31;0.30;99.90
53876;DHT22;39789;53.216;5.624;2022-11-20T01:08:59;0.30;99.90
53876;DHT22;39789;53.216;5.624;2022-11-20T01:11:30;0.30;99.90
53876;DHT22;39789;53.216;5.624;2022-11-20T01:13:57;0.40;99.90
53876;DHT22;39789;53.216;5.624;2022-11-20T01:16:26;0.30;99.90
53876;DHT22;39789;53.216;5.624;2022-11-20T01:18:53;0.30;99.90
53876;DHT22;39789;53.216;5.624;2022-11-20T01:21:33;0.30;99.90
53876;DHT22;39789;53.216;5.624;2022-11-20T01:23:59;0.40;99.90
53876;DHT22;39789;53.216;5.624;2022-11-20T01:26:28;0.30;99.90
53876;DHT22;39789;53.216;5.624;2022-11-20T01:28:55;0.40;99.90
53876;DHT22;39789;53.216;5.624;2022-11-20T01:31:24;0.40;99.90
53876;DHT22;39789;53.216;5.624;2022-11-20T01:33:51;0.40;99.90
53876;DHT22;39789;53.216;5.624;2022-11-20T01:36:18;0.30;99.90
53876;DHT22;39789;53.216;5.624;2022-11-20T01:38:44;0.20;99.90
53876;DHT22;39789;53.216;5.624;2022-11-20T01:41:11;0.30;99.90
53876;DHT22;39789;53.216;5.624;2022-11-20T01:43:58;0.30;99.90
53876;DHT22;39789;53.216;5.624;2022-11-20T01:46:23;0.30;99.90
53876;DHT22;39789;53.216;5.624;2022-11-20T01:51:43;0.30;99.90
53876;DHT22;39789;53.216;5.624;2022-11-20T01:54:15;0.40;99.90
53876;DHT22;39789;53.216;5.624;2022-11-20T01:56:42;0.40;99.90
53876;DHT22;39789;53.216;5.624;2022-11-20T01:59:10;0.40;99.90
53876;DHT22;39789;53.216;5.624;2022-11-20T02:01:37;0.50;99.90
53876;DHT22;39789;53.216;5.624;2022-11-20T02:04:05;0.50;99.90
53876;DHT22;39789;53.216;5.624;2022-11-20T02:06:36;0.50;99.90
53876;DHT22;39789;53.216;5.624;2022-11-20T02:09:04;0.50;99.90
53876;DHT22;39789;53.216;5.624;2022-11-20T02:11:30;0.60;99.90
53876;DHT22;39789;53.216;5.624;2022-11-20T02:13:56;0.60;99.90
53876;DHT22;39789;53.216;5.624;2022-11-20T02:16:26;0.50;99.90
53876;DHT22;39789;53.216;5.624;2022-11-20T02:18:54;0.60;99.90
53876;DHT22;39789;53.216;5.624;2022-11-20T02:24:18;0.50;99.90
53876;DHT22;39789;53.216;5.624;2022-11-20T02:26:57;0.50;99.90
53876;DHT22;39789;53.216;5.624;2022-11-20T02:29:46;0.50;99.90
53876;DHT22;39789;53.216;5.624;2022-11-20T02:34:51;0.50;99.90
53876;DHT22;39789;53.216;5.624;2022-11-20T02:37:17;0.60;99.90
53876;DHT22;39789;53.216;5.624;2022-11-20T02:39:46;0.50;99.90
53876;DHT22;39789;53.216;5.624;2022-11-20T02:42:12;0.50;99.90
53876;DHT22;39789;53.216;5.624;2022-11-20T02:44:38;0.50;99.90
53876;DHT22;39789;53.216;5.624;2022-11-20T02:47:04;0.50;99.90
53876;DHT22;39789;53.216;5.624;2022-11-20T02:49:29;0.50;99.90
53876;DHT22;39789;53.216;5.624;2022-11-20T02:51:55;0.50;99.90
53876;DHT22;39789;53.216;5.624;2022-11-20T02:54:20;0.50;99.90
53876;DHT22;39789;53.216;5.624;2022-11-20T02:56:46;0.50;99.90
53876;DHT22;39789;53.216;5.624;2022-11-20T02:59:12;0.50;99.90
53876;DHT22;39789;53.216;5.624;2022-11-20T03:01:37;-0.40;99.90
53876;DHT22;39789;53.216;5.624;2022-11-20T03:04:03;0.60;99.90
53876;DHT22;39789;53.216;5.624;2022-11-20T03:06:28;0.60;99.90
53876;DHT22;39789;53.216;5.624;2022-11-20T03:08:54;0.60;99.90
53876;DHT22;39789;53.216;5.624;2022-11-20T03:11:20;0.60;99.90
53876;DHT22;39789;53.216;5.624;2022-11-20T03:13:45;0.60;99.90
53876;DHT22;39789;53.216;5.624;2022-11-20T03:16:19;0.60;99.90
53876;DHT22;39789;53.216;5.624;2022-11-20T03:18:45;0.50;99.90
53876;DHT22;39789;53.216;5.624;2022-11-20T03:21:12;0.60;99.90
53876;DHT22;39789;53.216;5.624;2022-11-20T03:23:39;0.50;99.90
53876;DHT22;39789;53.216;5.624;2022-11-20T03:26:18;0.50;99.90
53876;DHT22;39789;53.216;5.624;2022-11-20T03:28:52;0.50;99.90
53876;DHT22;39789;53.216;5.624;2022-11-20T03:31:24;0.50;99.90
53876;DHT22;39789;53.216;5.624;2022-11-20T03:33:50;0.50;99.90
53876;DHT22;39789;53.216;5.624;2022-11-20T03:36:17;0.40;99.90
53876;DHT22;39789;53.216;5.624;2022-11-20T03:38:44;0.40;99.90
53876;DHT22;39789;53.216;5.624;2022-11-20T03:41:12;0.40;99.90
53876;DHT22;39789;53.216;5.624;2022-11-20T03:43:38;0.40;99.90
53876;DHT22;39789;53.216;5.624;2022-11-20T03:46:04;0.40;99.90
53876;DHT22;39789;53.216;5.624;2022-11-20T03:48:30;0.40;99.90
53876;DHT22;39789;53.216;5.624;2022-11-20T03:51:16;0.30;99.90
53876;DHT22;39789;53.216;5.624;2022-11-20T03:53:43;0.30;99.90
53876;DHT22;39789;53.216;5.624;2022-11-20T03:56:11;0.30;99.90
53876;DHT22;39789;53.216;5.624;2022-11-20T03:58:38;0.20;99.90
53876;DHT22;39789;53.216;5.624;2022-11-20T04:01:11;0.10;99.90
53876;DHT22;39789;53.216;5.624;2022-11-20T04:03:37;0.10;99.90
53876;DHT22;39789;53.216;5.624;2022-11-20T04:06:15;0.10;99.90
53876;DHT22;39789;53.216;5.624;2022-11-20T04:08:41;0.00;99.90
53876;DHT22;39789;53.216;5.624;2022-11-20T04:11:16;0.00;99.90
53876;DHT22;39789;53.216;5.624;2022-11-20T04:13:45;0.00;99.90
53876;DHT22;39789;53.216;5.624;2022-11-20T04:16:14;0.00;99.90
53876;DHT22;39789;53.216;5.624;2022-11-20T04:18:40;-0.10;99.90
53876;DHT22;39789;53.216;5.624;2022-11-20T04:21:06;-0.10;99.90
53876;DHT22;39789;53.216;5.624;2022-11-20T04:23:32;-0.10;99.90
53876;DHT22;39789;53.216;5.624;2022-11-20T04:26:09;-0.30;99.90
53876;DHT22;39789;53.216;5.624;2022-11-20T04:28:36;-0.40;99.90
53876;DHT22;39789;53.216;5.624;2022-11-20T04:31:10;-0.40;99.90
53876;DHT22;39789;53.216;5.624;2022-11-20T04:33:37;-0.40;99.90
53876;DHT22;39789;53.216;5.624;2022-11-20T04:36:09;-0.40;99.90
53876;DHT22;39789;53.216;5.624;2022-11-20T04:38:35;-0.40;99.90
53876;DHT22;39789;53.216;5.624;2022-11-20T04:41:04;-0.50;99.90
53876;DHT22;39789;53.216;5.624;2022-11-20T04:43:31;-0.50;99.90
53876;DHT22;39789;53.216;5.624;2022-11-20T04:45:57;-0.50;99.90
53876;DHT22;39789;53.216;5.624;2022-11-20T04:48:24;-0.50;99.90
53876;DHT22;39789;53.216;5.624;2022-11-20T04:50:50;-0.50;99.90
53876;DHT22;39789;53.216;5.624;2022-11-20T04:53:16;-0.50;99.90
53876;DHT22;39789;53.216;5.624;2022-11-20T04:55:42;-0.50;99.90
53876;DHT22;39789;53.216;5.624;2022-11-20T04:58:07;-0.50;99.90
53876;DHT22;39789;53.216;5.624;2022-11-20T05:00:33;-0.60;99.90
53876;DHT22;39789;53.216;5.624;2022-11-20T05:02:59;-0.60;99.90
53876;DHT22;39789;53.216;5.624;2022-11-20T05:05:24;0.00;99.90
53876;DHT22;39789;53.216;5.624;2022-11-20T05:07:50;-0.60;99.90
53876;DHT22;39789;53.216;5.624;2022-11-20T05:10:15;-0.70;99.90
53876;DHT22;39789;53.216;5.624;2022-11-20T05:12:41;0.70;99.90
53876;DHT22;39789;53.216;5.624;2022-11-20T05:15:07;-0.20;99.90
53876;DHT22;39789;53.216;5.624;2022-11-20T05:17:33;-0.60;99.90
53876;DHT22;39789;53.216;5.624;2022-11-20T05:19:58;-0.60;99.90
53876;DHT22;39789;53.216;5.624;2022-11-20T05:22:24;-0.70;99.90
53876;DHT22;39789;53.216;5.624;2022-11-20T05:24:49;-0.60;99.90
53876;DHT22;39789;53.216;5.624;2022-11-20T05:27:15;-0.50;99.90
53876;DHT22;39789;53.216;5.624;2022-11-20T05:29:41;-0.40;99.90
53876;DHT22;39789;53.216;5.624;2022-11-20T05:32:06;-0.40;99.90
53876;DHT22;39789;53.216;5.624;2022-11-20T05:34:35;-0.30;99.90
53876;DHT22;39789;53.216;5.624;2022-11-20T05:37:00;-0.20;99.90
53876;DHT22;39789;53.216;5.624;2022-11-20T05:39:26;-0.20;99.90
53876;DHT22;39789;53.216;5.624;2022-11-20T05:41:51;-0.20;99.90
53876;DHT22;39789;53.216;5.624;2022-11-20T05:44:37;-0.20;99.90
53876;DHT22;39789;53.216;5.624;2022-11-20T05:47:02;-0.20;99.90
53876;DHT22;39789;53.216;5.624;2022-11-20T05:49:28;-0.20;99.90
53876;DHT22;39789;53.216;5.624;2022-11-20T05:51:53;-0.20;99.90
53876;DHT22;39789;53.216;5.624;2022-11-20T05:54:19;-0.20;99.90
53876;DHT22;39789;53.216;5.624;2022-11-20T05:56:44;-0.20;99.90
53876;DHT22;39789;53.216;5.624;2022-11-20T05:59:10;-0.20;99.90
53876;DHT22;39789;53.216;5.624;2022-11-20T06:01:35;-0.20;99.90
53876;DHT22;39789;53.216;5.624;2022-11-20T06:04:01;-0.20;99.90
53876;DHT22;39789;53.216;5.624;2022-11-20T06:06:27;-0.20;99.90
53876;DHT22;39789;53.216;5.624;2022-11-20T06:08:54;-0.20;99.90
53876;DHT22;39789;53.216;5.624;2022-11-20T06:11:20;-0.10;99.90
53876;DHT22;39789;53.216;5.624;2022-11-20T06:13:46;-0.20;99.90
53876;DHT22;39789;53.216;5.624;2022-11-20T06:16:13;-0.10;99.90
53876;DHT22;39789;53.216;5.624;2022-11-20T06:18:39;-0.10;99.90
53876;DHT22;39789;53.216;5.624;2022-11-20T06:21:11;-0.10;99.90
53876;DHT22;39789;53.216;5.624;2022-11-20T06:23:37;0.00;99.90
53876;DHT22;39789;53.216;5.624;2022-11-20T06:26:05;0.00;99.90
53876;DHT22;39789;53.216;5.624;2022-11-20T06:28:31;0.00;99.90
53876;DHT22;39789;53.216;5.624;2022-11-20T06:30:57;0.00;99.90
53876;DHT22;39789;53.216;5.624;2022-11-20T06:33:23;0.00;99.90
53876;DHT22;39789;53.216;5.624;2022-11-20T06:35:49;-0.10;99.90
53876;DHT22;39789;53.216;5.624;2022-11-20T06:38:14;-0.10;99.90
53876;DHT22;39789;53.216;5.624;2022-11-20T06:40:41;-0.10;99.90
53876;DHT22;39789;53.216;5.624;2022-11-20T06:43:08;-0.10;99.90
53876;DHT22;39789;53.216;5.624;2022-11-20T06:45:33;-0.20;99.90
53876;DHT22;39789;53.216;5.624;2022-11-20T06:47:59;0.30;99.90
53876;DHT22;39789;53.216;5.624;2022-11-20T06:50:24;-0.20;99.90
53876;DHT22;39789;53.216;5.624;2022-11-20T06:52:53;-0.20;99.90
53876;DHT22;39789;53.216;5.624;2022-11-20T06:55:18;-0.20;99.90
53876;DHT22;39789;53.216;5.624;2022-11-20T06:57:44;-0.20;99.90
53876;DHT22;39789;53.216;5.624;2022-11-20T07:00:10;-0.10;99.90
53876;DHT22;39789;53.216;5.624;2022-11-20T07:02:36;-0.10;99.90
53876;DHT22;39789;53.216;5.624;2022-11-20T07:05:01;0.00;99.90
53876;DHT22;39789;53.216;5.624;2022-11-20T07:07:27;0.10;99.90
53876;DHT22;39789;53.216;5.624;2022-11-20T07:09:53;0.00;99.90
53876;DHT22;39789;53.216;5.624;2022-11-20T07:12:18;0.10;99.90
53876;DHT22;39789;53.216;5.624;2022-11-20T07:14:44;0.10;99.90
53876;DHT22;39789;53.216;5.624;2022-11-20T07:17:09;0.20;99.90
53876;DHT22;39789;53.216;5.624;2022-11-20T07:19:35;0.20;99.90
53876;DHT22;39789;53.216;5.624;2022-11-20T07:22:00;0.20;99.90
53876;DHT22;39789;53.216;5.624;2022-11-20T07:24:26;0.20;99.90
53876;DHT22;39789;53.216;5.624;2022-11-20T07:26:51;0.00;99.90
53876;DHT22;39789;53.216;5.624;2022-11-20T07:29:17;-0.10;99.90
53876;DHT22;39789;53.216;5.624;2022-11-20T07:35:09;-0.20;99.90
53876;DHT22;39789;53.216;5.624;2022-11-20T07:37:35;-0.20;99.90
53876;DHT22;39789;53.216;5.624;2022-11-20T07:40:00;-0.40;99.90
53876;DHT22;39789;53.216;5.624;2022-11-20T07:42:26;0.00;99.90
53876;DHT22;39789;53.216;5.624;2022-11-20T07:44:51;0.30;99.90
53876;DHT22;39789;53.216;5.624;2022-11-20T07:47:17;-0.60;99.90
53876;DHT22;39789;53.216;5.624;2022-11-20T07:49:42;-0.60;99.90
53876;DHT22;39789;53.216;5.624;2022-11-20T07:52:08;-0.60;99.90
53876;DHT22;39789;53.216;5.624;2022-11-20T07:54:34;-0.60;99.90
53876;DHT22;39789;53.216;5.624;2022-11-20T07:56:59;-0.40;99.90
53876;DHT22;39789;53.216;5.624;2022-11-20T07:59:25;-0.70;99.90
53876;DHT22;39789;53.216;5.624;2022-11-20T08:01:50;-0.70;99.90
53876;DHT22;39789;53.216;5.624;2022-11-20T08:04:16;-0.60;99.90
53876;DHT22;39789;53.216;5.624;2022-11-20T08:06:42;-0.60;99.90
53876;DHT22;39789;53.216;5.624;2022-11-20T08:09:07;-0.50;99.90
53876;DHT22;39789;53.216;5.624;2022-11-20T08:11:33;-0.50;99.90
53876;DHT22;39789;53.216;5.624;2022-11-20T08:14:17;-0.40;99.90
53876;DHT22;39789;53.216;5.624;2022-11-20T08:16:47;0.10;99.90
53876;DHT22;39789;53.216;5.624;2022-11-20T08:19:14;-0.20;99.90
53876;DHT22;39789;53.216;5.624;2022-11-20T08:21:40;-0.20;99.90
53876;DHT22;39789;53.216;5.624;2022-11-20T08:24:06;-0.10;99.90
53876;DHT22;39789;53.216;5.624;2022-11-20T08:26:33;1.00;99.90
53876;DHT22;39789;53.216;5.624;2022-11-20T08:28:59;0.00;99.90
53876;DHT22;39789;53.216;5.624;2022-11-20T08:31:26;0.10;99.90
53876;DHT22;39789;53.216;5.624;2022-11-20T08:33:52;-0.10;99.90
53876;DHT22;39789;53.216;5.624;2022-11-20T08:36:18;0.10;99.90
53876;DHT22;39789;53.216;5.624;2022-11-20T08:38:49;0.20;99.90
53876;DHT22;39789;53.216;5.624;2022-11-20T08:41:15;0.10;99.90
53876;DHT22;39789;53.216;5.624;2022-11-20T08:43:52;0.30;99.90
53876;DHT22;39789;53.216;5.624;2022-11-20T08:46:18;0.40;99.90
53876;DHT22;39789;53.216;5.624;2022-11-20T08:48:44;0.40;99.90
53876;DHT22;39789;53.216;5.624;2022-11-20T08:51:11;0.50;99.90
53876;DHT22;39789;53.216;5.624;2022-11-20T08:53:37;0.60;99.90
53876;DHT22;39789;53.216;5.624;2022-11-20T08:56:03;0.70;99.90
53876;DHT22;39789;53.216;5.624;2022-11-20T08:58:29;0.80;99.90
53876;DHT22;39789;53.216;5.624;2022-11-20T09:00:54;1.10;99.90
53876;DHT22;39789;53.216;5.624;2022-11-20T09:03:20;0.90;99.90
53876;DHT22;39789;53.216;5.624;2022-11-20T09:05:45;1.80;99.90
53876;DHT22;39789;53.216;5.624;2022-11-20T09:08:11;1.70;99.90
53876;DHT22;39789;53.216;5.624;2022-11-20T09:10:37;1.10;99.90
53876;DHT22;39789;53.216;5.624;2022-11-20T09:13:05;1.80;99.90
53876;DHT22;39789;53.216;5.624;2022-11-20T09:15:31;1.50;99.90
53876;DHT22;39789;53.216;5.624;2022-11-20T09:17:59;1.70;99.90
53876;DHT22;39789;53.216;5.624;2022-11-20T09:20:26;1.50;99.90
53876;DHT22;39789;53.216;5.624;2022-11-20T09:22:52;1.50;99.90
53876;DHT22;39789;53.216;5.624;2022-11-20T09:25:18;1.60;99.90
53876;DHT22;39789;53.216;5.624;2022-11-20T09:27:44;1.60;99.90
53876;DHT22;39789;53.216;5.624;2022-11-20T09:30:12;1.70;99.90
53876;DHT22;39789;53.216;5.624;2022-11-20T09:32:41;1.60;99.90
53876;DHT22;39789;53.216;5.624;2022-11-20T09:35:08;1.60;99.90
53876;DHT22;39789;53.216;5.624;2022-11-20T09:37:33;1.70;99.90
53876;DHT22;39789;53.216;5.624;2022-11-20T09:39:59;1.70;99.90
53876;DHT22;39789;53.216;5.624;2022-11-20T09:42:37;1.90;99.90
53876;DHT22;39789;53.216;5.624;2022-11-20T09:45:10;1.90;99.90
53876;DHT22;39789;53.216;5.624;2022-11-20T09:47:45;1.90;99.90
53876;DHT22;39789;53.216;5.624;2022-11-20T09:50:26;2.30;99.90
53876;DHT22;39789;53.216;5.624;2022-11-20T09:53:11;2.20;99.90
53876;DHT22;39789;53.216;5.624;2022-11-20T09:55:37;2.30;99.90
53876;DHT22;39789;53.216;5.624;2022-11-20T09:58:07;2.40;99.90
53876;DHT22;39789;53.216;5.624;2022-11-20T10:00:35;2.50;99.90
53876;DHT22;39789;53.216;5.624;2022-11-20T10:03:11;2.50;99.90
53876;DHT22;39789;53.216;5.624;2022-11-20T10:05:47;2.60;99.90
53876;DHT22;39789;53.216;5.624;2022-11-20T10:08:40;2.60;99.90
53876;DHT22;39789;53.216;5.624;2022-11-20T10:14:10;2.80;99.90
53876;DHT22;39789;53.216;5.624;2022-11-20T10:16:59;3.00;99.90
53876;DHT22;39789;53.216;5.624;2022-11-20T10:23:09;2.70;99.90
53876;DHT22;39789;53.216;5.624;2022-11-20T10:25:49;2.80;99.90
53876;DHT22;39789;53.216;5.624;2022-11-20T10:35:00;2.90;99.90
53876;DHT22;39789;53.216;5.624;2022-11-20T10:37:27;3.00;99.90
53876;DHT22;39789;53.216;5.624;2022-11-20T10:40:05;3.00;99.90
53876;DHT22;39789;53.216;5.624;2022-11-20T10:42:43;3.10;99.90
53876;DHT22;39789;53.216;5.624;2022-11-20T10:48:01;3.00;99.90
53876;DHT22;39789;53.216;5.624;2022-11-20T10:50:35;3.10;99.90
53876;DHT22;39789;53.216;5.624;2022-11-20T10:53:28;3.00;99.90
53876;DHT22;39789;53.216;5.624;2022-11-20T10:56:03;3.00;99.90
53876;DHT22;39789;53.216;5.624;2022-11-20T10:58:49;2.90;99.90
53876;DHT22;39789;53.216;5.624;2022-11-20T11:01:19;2.90;99.90
53876;DHT22;39789;53.216;5.624;2022-11-20T11:03:49;2.90;99.90
53876;DHT22;39789;53.216;5.624;2022-11-20T11:06:34;2.90;99.90
53876;DHT22;39789;53.216;5.624;2022-11-20T11:09:13;2.90;99.90
53876;DHT22;39789;53.216;5.624;2022-11-20T11:11:40;3.00;99.90
53876;DHT22;39789;53.216;5.624;2022-11-20T11:14:12;3.00;99.90
53876;DHT22;39789;53.216;5.624;2022-11-20T11:16:50;3.00;99.90
53876;DHT22;39789;53.216;5.624;2022-11-20T11:19:16;3.10;99.90
53876;DHT22;39789;53.216;5.624;2022-11-20T11:21:46;3.10;99.90
53876;DHT22;39789;53.216;5.624;2022-11-20T11:24:28;3.20;99.90
53876;DHT22;39789;53.216;5.624;2022-11-20T11:27:10;3.20;99.90
53876;DHT22;39789;53.216;5.624;2022-11-20T11:29:36;3.40;99.90
53876;DHT22;39789;53.216;5.624;2022-11-20T11:32:08;3.40;99.90
53876;DHT22;39789;53.216;5.624;2022-11-20T11:34:36;3.50;99.90
53876;DHT22;39789;53.216;5.624;2022-11-20T11:37:02;3.60;99.90
53876;DHT22;39789;53.216;5.624;2022-11-20T11:39:32;3.60;99.90
53876;DHT22;39789;53.216;5.624;2022-11-20T11:42:00;3.60;99.90
53876;DHT22;39789;53.216;5.624;2022-11-20T11:44:32;3.70;99.90
53876;DHT22;39789;53.216;5.624;2022-11-20T11:47:32;3.70;99.90
53876;DHT22;39789;53.216;5.624;2022-11-20T11:50:26;3.70;99.90
53876;DHT22;39789;53.216;5.624;2022-11-20T11:53:09;3.60;99.90
53876;DHT22;39789;53.216;5.624;2022-11-20T11:56:08;3.60;99.90
53876;DHT22;39789;53.216;5.624;2022-11-20T11:58:46;3.60;99.90
53876;DHT22;39789;53.216;5.624;2022-11-20T12:01:53;3.60;99.90
53876;DHT22;39789;53.216;5.624;2022-11-20T12:04:46;3.50;99.90
53876;DHT22;39789;53.216;5.624;2022-11-20T12:07:24;3.40;99.90
53876;DHT22;39789;53.216;5.624;2022-11-20T12:09:53;3.40;99.90
53876;DHT22;39789;53.216;5.624;2022-11-20T12:12:29;3.40;99.90
53876;DHT22;39789;53.216;5.624;2022-11-20T12:14:56;3.30;99.90
53876;DHT22;39789;53.216;5.624;2022-11-20T12:17:22;3.30;99.90
53876;DHT22;39789;53.216;5.624;2022-11-20T12:19:47;3.30;99.90
53876;DHT22;39789;53.216;5.624;2022-11-20T12:25:07;3.20;99.90
53876;DHT22;39789;53.216;5.624;2022-11-20T12:33:53;3.00;99.90
53876;DHT22;39789;53.216;5.624;2022-11-20T12:37:01;3.00;99.90
53876;DHT22;39789;53.216;5.624;2022-11-20T12:39:34;3.00;99.90
53876;DHT22;39789;53.216;5.624;2022-11-20T12:55:47;2.90;99.90
53876;DHT22;39789;53.216;5.624;2022-11-20T12:58:29;2.90;99.90
53876;DHT22;39789;53.216;5.624;2022-11-20T13:01:25;2.90;99.90
53876;DHT22;39789;53.216;5.624;2022-11-20T13:04:40;2.90;99.90
53876;DHT22;39789;53.216;5.624;2022-11-20T13:07:12;2.90;99.90
53876;DHT22;39789;53.216;5.624;2022-11-20T13:09:43;2.90;99.90
53876;DHT22;39789;53.216;5.624;2022-11-20T13:14:52;2.90;99.90
53876;DHT22;39789;53.216;5.624;2022-11-20T13:17:36;2.80;99.90
53876;DHT22;39789;53.216;5.624;2022-11-20T13:20:06;2.80;99.90
53876;DHT22;39789;53.216;5.624;2022-11-20T13:25:21;2.80;99.90
53876;DHT22;39789;53.216;5.624;2022-11-20T13:27:47;2.70;99.90
53876;DHT22;39789;53.216;5.624;2022-11-20T13:30:16;2.70;99.90
53876;DHT22;39789;53.216;5.624;2022-11-20T13:33:02;2.70;99.90
53876;DHT22;39789;53.216;5.624;2022-11-20T13:35:40;2.70;99.90
53876;DHT22;39789;53.216;5.624;2022-11-20T13:38:11;2.70;99.90
53876;DHT22;39789;53.216;5.624;2022-11-20T13:40:50;2.70;99.90
53876;DHT22;39789;53.216;5.624;2022-11-20T13:43:37;2.80;99.90
53876;DHT22;39789;53.216;5.624;2022-11-20T13:46:06;2.70;99.90
53876;DHT22;39789;53.216;5.624;2022-11-20T13:48:40;2.60;99.90
53876;DHT22;39789;53.216;5.624;2022-11-20T13:51:11;2.60;99.90
53876;DHT22;39789;53.216;5.624;2022-11-20T14:01:30;2.60;99.90
53876;DHT22;39789;53.216;5.624;2022-11-20T14:03:57;2.60;99.90
53876;DHT22;39789;53.216;5.624;2022-11-20T14:06:32;2.70;99.90
53876;DHT22;39789;53.216;5.624;2022-11-20T14:08:59;2.50;99.90
53876;DHT22;39789;53.216;5.624;2022-11-20T14:11:27;2.50;99.90
53876;DHT22;39789;53.216;5.624;2022-11-20T14:16:21;2.50;99.90
53876;DHT22;39789;53.216;5.624;2022-11-20T14:18:47;2.40;99.90
53876;DHT22;39789;53.216;5.624;2022-11-20T14:21:22;2.50;99.90
53876;DHT22;39789;53.216;5.624;2022-11-20T14:23:48;2.50;99.90
53876;DHT22;39789;53.216;5.624;2022-11-20T14:26:18;2.50;99.90
53876;DHT22;39789;53.216;5.624;2022-11-20T14:28:49;2.40;99.90
53876;DHT22;39789;53.216;5.624;2022-11-20T14:31:23;2.50;99.90
53876;DHT22;39789;53.216;5.624;2022-11-20T14:33:49;2.40;99.90
53876;DHT22;39789;53.216;5.624;2022-11-20T14:36:21;2.50;99.90
53876;DHT22;39789;53.216;5.624;2022-11-20T14:38:47;2.40;99.90
53876;DHT22;39789;53.216;5.624;2022-11-20T14:41:18;2.40;99.90
53876;DHT22;39789;53.216;5.624;2022-11-20T14:43:58;2.40;99.90
53876;DHT22;39789;53.216;5.624;2022-11-20T14:46:24;2.40;99.90
53876;DHT22;39789;53.216;5.624;2022-11-20T14:48:53;2.40;99.90
53876;DHT22;39789;53.216;5.624;2022-11-20T14:51:32;2.40;99.90
53876;DHT22;39789;53.216;5.624;2022-11-20T14:54:18;2.40;99.90
53876;DHT22;39789;53.216;5.624;2022-11-20T14:56:58;2.30;99.90
53876;DHT22;39789;53.216;5.624;2022-11-20T14:59:25;2.30;99.90
53876;DHT22;39789;53.216;5.624;2022-11-20T15:02:07;2.30;99.90
53876;DHT22;39789;53.216;5.624;2022-11-20T15:04:45;2.30;99.90
53876;DHT22;39789;53.216;5.624;2022-11-20T15:07:10;2.20;99.90
53876;DHT22;39789;53.216;5.624;2022-11-20T15:09:36;2.20;99.90
53876;DHT22;39789;53.216;5.624;2022-11-20T15:12:03;2.20;99.90
53876;DHT22;39789;53.216;5.624;2022-11-20T15:14:30;2.20;99.90
53876;DHT22;39789;53.216;5.624;2022-11-20T15:16:56;2.10;99.90
53876;DHT22;39789;53.216;5.624;2022-11-20T15:19:24;2.10;99.90
53876;DHT22;39789;53.216;5.624;2022-11-20T15:21:50;2.10;99.90
53876;DHT22;39789;53.216;5.624;2022-11-20T15:24:16;2.10;99.90
53876;DHT22;39789;53.216;5.624;2022-11-20T15:26:42;2.10;99.90
53876;DHT22;39789;53.216;5.624;2022-11-20T15:29:10;2.10;99.90
53876;DHT22;39789;53.216;5.624;2022-11-20T15:31:37;2.10;99.90
53876;DHT22;39789;53.216;5.624;2022-11-20T15:34:12;2.10;99.90
53876;DHT22;39789;53.216;5.624;2022-11-20T15:36:39;2.00;99.90
53876;DHT22;39789;53.216;5.624;2022-11-20T15:39:05;2.10;99.90
53876;DHT22;39789;53.216;5.624;2022-11-20T15:41:33;2.10;99.90
53876;DHT22;39789;53.216;5.624;2022-11-20T15:43:58;2.10;99.90
53876;DHT22;39789;53.216;5.624;2022-11-20T15:46:27;2.10;99.90
53876;DHT22;39789;53.216;5.624;2022-11-20T15:48:55;2.10;99.90
53876;DHT22;39789;53.216;5.624;2022-11-20T15:51:47;2.10;99.90
53876;DHT22;39789;53.216;5.624;2022-11-20T15:54:23;2.20;99.90
53876;DHT22;39789;53.216;5.624;2022-11-20T15:56:49;2.10;99.90
53876;DHT22;39789;53.216;5.624;2022-11-20T15:59:17;2.10;99.90
53876;DHT22;39789;53.216;5.624;2022-11-20T16:01:43;2.20;99.90
53876;DHT22;39789;53.216;5.624;2022-11-20T16:04:14;2.20;99.90
53876;DHT22;39789;53.216;5.624;2022-11-20T16:06:41;2.20;99.90
53876;DHT22;39789;53.216;5.624;2022-11-20T16:09:07;2.20;99.90
53876;DHT22;39789;53.216;5.624;2022-11-20T16:11:33;2.10;99.90
53876;DHT22;39789;53.216;5.624;2022-11-20T16:14:00;2.20;99.90
53876;DHT22;39789;53.216;5.624;2022-11-20T16:16:44;2.20;99.90
53876;DHT22;39789;53.216;5.624;2022-11-20T16:19:11;2.10;99.90
53876;DHT22;39789;53.216;5.624;2022-11-20T16:21:37;2.10;99.90
53876;DHT22;39789;53.216;5.624;2022-11-20T16:24:06;2.20;99.90
53876;DHT22;39789;53.216;5.624;2022-11-20T16:26:32;2.20;99.90
53876;DHT22;39789;53.216;5.624;2022-11-20T16:28:59;2.20;99.90
53876;DHT22;39789;53.216;5.624;2022-11-20T16:31:25;2.20;99.90
53876;DHT22;39789;53.216;5.624;2022-11-20T16:33:52;2.20;99.90
53876;DHT22;39789;53.216;5.624;2022-11-20T16:36:19;2.20;99.90
53876;DHT22;39789;53.216;5.624;2022-11-20T16:38:45;2.20;99.90
53876;DHT22;39789;53.216;5.624;2022-11-20T16:41:11;2.20;99.90
53876;DHT22;39789;53.216;5.624;2022-11-20T16:43:44;2.10;99.90
53876;DHT22;39789;53.216;5.624;2022-11-20T16:46:11;2.10;99.90
53876;DHT22;39789;53.216;5.624;2022-11-20T16:51:47;2.10;99.90
53876;DHT22;39789;53.216;5.624;2022-11-20T16:54:15;2.10;99.90
53876;DHT22;39789;53.216;5.624;2022-11-20T16:56:41;2.10;99.90
53876;DHT22;39789;53.216;5.624;2022-11-20T16:59:07;2.00;99.90
53876;DHT22;39789;53.216;5.624;2022-11-20T17:01:33;2.10;99.90
53876;DHT22;39789;53.216;5.624;2022-11-20T17:04:03;2.00;99.90
53876;DHT22;39789;53.216;5.624;2022-11-20T17:06:31;2.00;99.90